createdAt,value
2023-03-30T00:02:25.005Z,7.03
2023-03-30T00:04:53.847Z,5.60
2023-03-30T00:07:22.322Z,6.03
2023-03-30T00:09:50.710Z,7.03
2023-03-30T00:12:20.872Z,6.55
2023-03-30T00:14:49.348Z,6.45
2023-03-30T00:17:18.671Z,4.60
2023-03-30T00:19:47.113Z,10.32
2023-03-30T00:22:15.569Z,7.65
2023-03-30T00:24:43.979Z,4.50
2023-03-30T00:27:12.677Z,6.25
2023-03-30T00:29:42.576Z,8.80
2023-03-30T00:32:10.998Z,6.75
2023-03-30T00:34:39.530Z,7.10
2023-03-30T00:37:08.378Z,6.72
2023-03-30T00:39:36.777Z,6.10
2023-03-30T00:42:05.385Z,4.75
2023-03-30T00:45:11.688Z,8.60
2023-03-30T00:47:42.929Z,7.20
2023-03-30T00:50:12.797Z,5.85
2023-03-30T00:52:43.350Z,7.45
2023-03-30T00:55:12.701Z,5.78
2023-03-30T00:57:43.355Z,7.00
2023-03-30T01:00:14.992Z,2.72
2023-03-30T01:02:48.712Z,9.18
2023-03-30T01:05:17.306Z,6.95
2023-03-30T01:07:50.074Z,5.47
2023-03-30T01:10:19.023Z,5.28
2023-03-30T01:12:47.707Z,6.28
2023-03-30T01:15:17.984Z,6.40
2023-03-30T01:17:56.208Z,6.03
2023-03-30T01:20:56.749Z,6.85
2023-03-30T01:23:49.782Z,6.82
2023-03-30T01:26:40.208Z,6.10
2023-03-30T01:29:18.543Z,4.07
2023-03-30T01:32:13.867Z,4.50
2023-03-30T01:34:57.921Z,6.70
2023-03-30T01:37:56.851Z,4.25
2023-03-30T01:40:33.429Z,8.60
2023-03-30T01:43:09.265Z,6.15
2023-03-30T01:45:43.641Z,6.53
2023-03-30T01:48:16.982Z,5.95
2023-03-30T01:50:50.132Z,7.53
2023-03-30T01:53:24.521Z,7.65
2023-03-30T01:55:58.123Z,10.00
2023-03-30T01:58:32.646Z,11.50
2023-03-30T02:01:02.939Z,10.23
2023-03-30T02:03:34.334Z,10.75
2023-03-30T02:06:06.227Z,8.68
2023-03-30T02:08:37.937Z,10.35
2023-03-30T02:11:07.859Z,12.82
2023-03-30T02:13:39.161Z,7.75
2023-03-30T02:16:14.229Z,10.45
2023-03-30T02:18:43.156Z,11.10
2023-03-30T02:21:11.906Z,15.13
2023-03-30T02:23:44.313Z,13.40
2023-03-30T02:26:15.582Z,16.13
2023-03-30T02:28:44.229Z,13.90
2023-03-30T02:31:15.109Z,13.70
2023-03-30T02:34:00.450Z,12.43
2023-03-30T02:36:54.241Z,12.57
2023-03-30T02:39:34.658Z,11.70
2023-03-30T02:42:28.660Z,7.97
2023-03-30T02:45:09.032Z,12.68
2023-03-30T02:47:48.346Z,12.90
2023-03-30T02:50:21.193Z,10.45
2023-03-30T02:52:55.779Z,13.23
2023-03-30T02:55:34.605Z,14.57
2023-03-30T02:58:10.244Z,17.25
2023-03-30T03:00:44.588Z,15.55
2023-03-30T03:03:17.984Z,17.15
2023-03-30T03:05:46.666Z,12.40
2023-03-30T03:08:16.881Z,12.50
2023-03-30T03:10:45.466Z,20.70
2023-03-30T03:13:16.227Z,19.27
2023-03-30T03:15:46.407Z,13.43
2023-03-30T03:18:15.214Z,17.42
2023-03-30T03:20:43.623Z,16.52
2023-03-30T03:23:12.039Z,20.42
2023-03-30T03:25:40.522Z,17.65
2023-03-30T03:28:09.099Z,17.55
2023-03-30T03:30:39.055Z,14.40
2023-03-30T03:33:08.197Z,16.05
2023-03-30T03:35:39.574Z,15.43
2023-03-30T03:38:09.050Z,17.27
2023-03-30T03:40:37.460Z,14.38
2023-03-30T03:43:06.035Z,21.85
2023-03-30T03:45:34.602Z,18.15
2023-03-30T03:48:04.610Z,15.32
2023-03-30T03:50:33.368Z,24.65
2023-03-30T03:53:01.881Z,19.20
2023-03-30T03:55:30.652Z,27.25
2023-03-30T03:57:59.422Z,21.70
2023-03-30T04:00:27.939Z,23.27
2023-03-30T04:02:57.168Z,25.67
2023-03-30T04:05:27.392Z,31.23
2023-03-30T04:07:56.832Z,18.17
2023-03-30T04:10:25.652Z,22.53
2023-03-30T04:12:56.812Z,20.80
2023-03-30T04:15:25.675Z,24.53
2023-03-30T04:17:58.262Z,23.03
2023-03-30T04:20:30.341Z,18.03
2023-03-30T04:23:01.848Z,21.33
2023-03-30T04:25:31.154Z,22.17
2023-03-30T04:27:59.876Z,24.73
2023-03-30T04:30:30.535Z,22.37
2023-03-30T04:33:04.614Z,35.83
2023-03-30T04:35:35.377Z,27.10
2023-03-30T04:38:04.171Z,29.87
2023-03-30T04:40:33.055Z,27.50
2023-03-30T04:43:03.632Z,24.13
2023-03-30T04:45:32.169Z,27.47
2023-03-30T04:48:00.941Z,28.83
2023-03-30T04:50:29.484Z,28.10
2023-03-30T04:52:59.105Z,27.47
2023-03-30T04:55:27.554Z,29.80
2023-03-30T04:57:56.427Z,25.10
2023-03-30T05:00:24.922Z,27.08
2023-03-30T05:02:53.380Z,16.67
2023-03-30T05:05:21.923Z,29.35
2023-03-30T05:07:50.690Z,22.15
2023-03-30T05:10:20.573Z,30.52
2023-03-30T05:12:49.244Z,30.55
2023-03-30T05:15:17.749Z,31.58
2023-03-30T05:17:46.612Z,28.70
2023-03-30T05:20:15.328Z,31.45
2023-03-30T05:22:43.933Z,35.25
2023-03-30T05:25:12.872Z,29.88
2023-03-30T05:27:43.174Z,26.20
2023-03-30T05:30:12.177Z,29.67
2023-03-30T05:32:40.624Z,39.00
2023-03-30T05:35:09.343Z,30.93
2023-03-30T05:37:37.972Z,37.03
2023-03-30T05:40:09.533Z,24.20
2023-03-30T05:42:38.187Z,27.03
2023-03-30T05:45:09.539Z,30.00
2023-03-30T05:47:38.326Z,34.55
2023-03-30T05:50:08.301Z,26.50
2023-03-30T05:52:37.068Z,28.67
2023-03-30T05:55:05.843Z,27.75
2023-03-30T05:57:35.162Z,26.55
2023-03-30T06:00:07.035Z,41.00
2023-03-30T06:02:36.885Z,31.73
2023-03-30T06:05:05.925Z,28.92
2023-03-30T06:07:34.368Z,30.08
2023-03-30T06:10:03.363Z,35.35
2023-03-30T06:12:33.224Z,38.75
2023-03-30T06:15:03.379Z,37.03
2023-03-30T06:17:32.158Z,29.73
2023-03-30T06:20:01.886Z,39.45
2023-03-30T06:22:31.988Z,41.97
2023-03-30T06:25:00.814Z,34.38
2023-03-30T06:27:31.920Z,22.75
2023-03-30T06:30:00.283Z,33.90
2023-03-30T06:32:29.041Z,30.25
2023-03-30T06:34:57.839Z,39.87
2023-03-30T06:37:28.841Z,34.28
2023-03-30T06:39:57.528Z,34.35
2023-03-30T06:42:28.511Z,40.70
2023-03-30T06:44:57.287Z,48.65
2023-03-30T06:47:25.890Z,37.47
2023-03-30T06:49:54.389Z,34.33
2023-03-30T06:52:22.626Z,39.90
2023-03-30T06:54:52.423Z,38.33
2023-03-30T06:57:21.333Z,38.15
2023-03-30T06:59:49.821Z,37.67
2023-03-30T07:02:18.308Z,38.30
2023-03-30T07:04:47.482Z,40.97
2023-03-30T07:07:16.220Z,49.47
2023-03-30T07:09:44.693Z,38.28
2023-03-30T07:12:14.326Z,43.40
2023-03-30T07:14:42.781Z,47.87
2023-03-30T07:17:11.800Z,45.40
2023-03-30T07:19:40.265Z,47.53
2023-03-30T07:22:09.729Z,49.20
2023-03-30T07:24:38.173Z,46.10
2023-03-30T07:27:06.723Z,50.07
2023-03-30T07:29:37.083Z,55.70
2023-03-30T07:32:05.686Z,45.33
2023-03-30T07:34:34.682Z,45.80
2023-03-30T07:37:03.542Z,47.23
2023-03-30T07:39:33.824Z,39.37
2023-03-30T07:42:02.473Z,35.10
2023-03-30T07:44:30.908Z,40.80
2023-03-30T07:47:01.969Z,39.93
2023-03-30T07:49:30.940Z,43.67
2023-03-30T07:51:59.582Z,45.00
2023-03-30T07:54:28.066Z,39.37
2023-03-30T07:56:56.798Z,39.63
2023-03-30T07:59:25.688Z,44.25
2023-03-30T08:01:54.439Z,44.08
2023-03-30T08:04:26.546Z,49.22
2023-03-30T08:06:55.162Z,48.60
2023-03-30T08:09:23.827Z,41.93
2023-03-30T08:11:52.300Z,53.23
2023-03-30T08:14:20.820Z,43.27
2023-03-30T08:16:49.561Z,43.10
2023-03-30T08:19:17.927Z,30.90
2023-03-30T08:21:47.839Z,45.00
2023-03-30T08:24:16.402Z,45.13
2023-03-30T08:26:45.171Z,42.50
2023-03-30T08:29:13.698Z,37.37
2023-03-30T08:31:42.666Z,39.10
2023-03-30T08:34:11.612Z,39.93
2023-03-30T08:36:40.800Z,35.83
2023-03-30T08:39:10.785Z,37.53
2023-03-30T08:42:04.347Z,43.28
2023-03-30T08:44:36.514Z,39.30
2023-03-30T08:47:07.627Z,34.47
2023-03-30T08:49:42.744Z,43.20
2023-03-30T08:52:14.771Z,31.48
2023-03-30T08:54:44.678Z,35.00
2023-03-30T08:57:23.190Z,32.42
2023-03-30T09:00:11.618Z,24.92
2023-03-30T09:02:44.229Z,31.17
2023-03-30T09:05:22.741Z,35.70
2023-03-30T09:07:59.085Z,24.90
2023-03-30T09:10:31.793Z,26.27
2023-03-30T09:13:03.438Z,30.98
2023-03-30T09:15:36.208Z,30.73
2023-03-30T09:18:13.371Z,29.98
2023-03-30T09:20:45.904Z,26.07
2023-03-30T09:23:16.433Z,27.73
2023-03-30T09:25:51.134Z,32.77
2023-03-30T09:28:21.990Z,30.58
2023-03-30T09:30:53.242Z,31.90
2023-03-30T09:33:32.017Z,37.10
2023-03-30T09:36:15.012Z,34.37
2023-03-30T09:38:44.319Z,28.92
2023-03-30T09:41:32.994Z,28.15
2023-03-30T09:44:02.997Z,37.67
2023-03-30T09:46:31.839Z,32.30
2023-03-30T09:49:15.394Z,32.07
2023-03-30T09:51:58.213Z,40.87
2023-03-30T09:54:27.616Z,30.03
2023-03-30T09:56:57.623Z,30.83
2023-03-30T09:59:35.766Z,32.57
2023-03-30T10:02:21.569Z,28.70
2023-03-30T10:05:05.125Z,29.20
2023-03-30T10:07:36.562Z,29.77
2023-03-30T10:10:15.885Z,27.05
2023-03-30T10:12:46.600Z,29.53
2023-03-30T10:15:19.122Z,32.17
2023-03-30T10:17:51.248Z,30.67
2023-03-30T10:20:27.840Z,41.28
2023-03-30T10:23:00.483Z,32.75
2023-03-30T10:25:31.697Z,35.40
2023-03-30T10:28:04.995Z,34.57
2023-03-30T10:30:34.783Z,31.52
2023-03-30T10:33:04.227Z,31.67
2023-03-30T10:35:37.399Z,34.97
2023-03-30T10:38:10.466Z,37.95
2023-03-30T10:40:41.915Z,40.92
2023-03-30T10:43:16.057Z,36.65
2023-03-30T10:45:48.393Z,38.92
2023-03-30T10:48:30.959Z,34.22
2023-03-30T10:51:07.821Z,37.65
2023-03-30T10:53:44.842Z,28.97
2023-03-30T10:56:27.203Z,37.28
2023-03-30T10:59:40.727Z,38.97
2023-03-30T11:02:30.008Z,31.98
2023-03-30T11:05:04.691Z,28.20
2023-03-30T11:07:38.289Z,40.17
2023-03-30T11:10:09.706Z,33.20
2023-03-30T11:12:44.185Z,32.88
2023-03-30T11:15:20.589Z,36.85
2023-03-30T11:17:57.236Z,29.55
2023-03-30T11:20:31.071Z,26.35
2023-03-30T11:23:11.755Z,27.92
2023-03-30T11:25:49.499Z,34.05
2023-03-30T11:28:23.808Z,40.85
2023-03-30T11:30:57.489Z,30.80
2023-03-30T11:33:33.810Z,28.73
2023-03-30T11:36:06.572Z,18.75
2023-03-30T11:38:42.665Z,24.90
2023-03-30T11:41:14.661Z,19.67
2023-03-30T11:43:46.606Z,25.70
2023-03-30T11:46:24.458Z,24.45
2023-03-30T11:49:09.969Z,18.88
2023-03-30T11:51:54.003Z,19.17
2023-03-30T11:54:59.841Z,22.85
2023-03-30T11:57:37.432Z,18.10
2023-03-30T12:00:26.390Z,20.95
2023-03-30T12:03:08.250Z,17.25
2023-03-30T12:05:38.977Z,23.08
2023-03-30T12:08:24.334Z,12.43
2023-03-30T12:11:01.300Z,12.02
2023-03-30T12:13:41.104Z,16.13
2023-03-30T12:16:21.184Z,25.75
2023-03-30T12:19:03.400Z,23.52
2023-03-30T12:21:34.476Z,23.35
2023-03-30T12:24:11.969Z,23.10
2023-03-30T12:26:42.554Z,22.77
2023-03-30T12:32:19.783Z,26.42
2023-03-30T12:34:49.415Z,20.40
2023-03-30T12:37:21.298Z,22.52
2023-03-30T12:39:54.467Z,20.33
2023-03-30T12:42:34.258Z,22.05
2023-03-30T12:45:32.872Z,28.83
2023-03-30T12:48:24.608Z,24.35
2023-03-30T12:51:08.616Z,19.85
2023-03-30T12:54:08.369Z,20.80
2023-03-30T12:56:45.133Z,24.58
2023-03-30T13:00:07.317Z,20.85
2023-03-30T13:02:51.920Z,29.13
2023-03-30T13:05:26.704Z,25.30
2023-03-30T13:07:57.756Z,23.48
2023-03-30T13:10:38.908Z,18.90
2023-03-30T13:13:16.777Z,26.02
2023-03-30T13:15:49.014Z,21.85
2023-03-30T13:18:36.045Z,20.30
2023-03-30T13:21:25.597Z,26.92
2023-03-30T13:24:22.387Z,20.55
2023-03-30T13:26:51.996Z,16.95
2023-03-30T13:29:30.991Z,23.45
2023-03-30T13:32:16.177Z,29.88
2023-03-30T13:35:09.984Z,28.63
2023-03-30T13:38:03.091Z,30.38
2023-03-30T13:40:54.600Z,28.08
2023-03-30T13:43:50.976Z,27.30
2023-03-30T13:46:26.919Z,33.90
2023-03-30T13:49:19.523Z,27.67
2023-03-30T13:51:48.991Z,27.17
2023-03-30T13:54:21.991Z,29.07
2023-03-30T13:56:58.192Z,27.67
2023-03-30T13:59:30.761Z,29.85
2023-03-30T14:02:01.571Z,31.63
2023-03-30T14:04:31.405Z,35.53
2023-03-30T14:07:05.561Z,24.08
2023-03-30T14:09:34.040Z,38.05
2023-03-30T14:12:07.757Z,31.00
2023-03-30T14:14:37.643Z,34.67
2023-03-30T14:17:15.987Z,26.13
2023-03-30T14:19:56.642Z,26.50
2023-03-30T14:22:27.649Z,27.83
2023-03-30T14:25:00.874Z,25.45
2023-03-30T14:27:38.686Z,23.97
2023-03-30T14:30:20.596Z,24.23
2023-03-30T14:32:49.238Z,22.52
2023-03-30T14:35:18.471Z,34.80
2023-03-30T14:37:52.163Z,21.85
2023-03-30T14:40:23.677Z,26.63
2023-03-30T14:42:53.630Z,25.27
2023-03-30T14:45:22.164Z,25.65
2023-03-30T14:47:51.488Z,30.48
2023-03-30T14:50:20.364Z,34.55
2023-03-30T14:52:49.267Z,48.63
2023-03-30T14:55:21.978Z,27.47
2023-03-30T14:57:51.571Z,35.85
2023-03-30T15:00:24.698Z,31.30
2023-03-30T15:02:57.091Z,31.77
2023-03-30T15:05:29.541Z,32.23
2023-03-30T15:07:58.224Z,24.00
2023-03-30T15:10:31.111Z,24.20
2023-03-30T15:13:00.924Z,34.15
2023-03-30T15:15:33.969Z,14.80
2023-03-30T15:18:05.542Z,23.25
2023-03-30T15:20:34.370Z,19.75
2023-03-30T15:23:02.930Z,19.77
2023-03-30T15:25:35.275Z,18.15
2023-03-30T15:28:06.919Z,22.60
2023-03-30T15:30:39.288Z,17.77
2023-03-30T15:33:08.668Z,17.73
2023-03-30T15:35:38.638Z,17.17
2023-03-30T15:38:18.097Z,22.80
2023-03-30T15:40:47.918Z,14.68
2023-03-30T15:43:18.269Z,20.17
2023-03-30T15:45:51.048Z,16.42
2023-03-30T15:48:22.789Z,14.35
2023-03-30T15:50:56.304Z,14.70
2023-03-30T15:53:37.702Z,15.73
2023-03-30T15:56:08.710Z,13.25
2023-03-30T15:58:37.434Z,20.40
2023-03-30T16:01:08.497Z,22.23
2023-03-30T16:03:40.658Z,21.27
2023-03-30T16:06:13.982Z,19.98
2023-03-30T16:08:44.470Z,22.10
2023-03-30T16:11:15.331Z,25.02
2023-03-30T16:13:44.922Z,25.10
2023-03-30T16:16:15.140Z,30.02
2023-03-30T16:18:43.880Z,26.05
2023-03-30T16:21:13.213Z,35.85
2023-03-30T16:23:41.805Z,33.45
2023-03-30T16:26:12.300Z,33.05
2023-03-30T16:28:42.913Z,31.33
2023-03-30T16:31:18.073Z,29.65
2023-03-30T16:33:46.874Z,28.10
2023-03-30T16:36:17.403Z,37.15
2023-03-30T16:38:46.856Z,35.87
2023-03-30T16:41:19.386Z,33.22
2023-03-30T16:43:48.342Z,33.90
2023-03-30T16:46:20.741Z,37.47
2023-03-30T16:48:49.101Z,27.30
2023-03-30T16:51:18.077Z,32.53
2023-03-30T16:53:47.709Z,29.40
2023-03-30T16:56:18.755Z,26.33
2023-03-30T16:58:48.110Z,22.10
2023-03-30T17:01:18.876Z,26.53
2023-03-30T17:03:47.831Z,25.77
2023-03-30T17:06:17.198Z,22.37
2023-03-30T17:08:46.163Z,19.63
2023-03-30T17:11:14.793Z,20.87
2023-03-30T17:13:43.670Z,27.00
2023-03-30T17:16:14.597Z,24.50
2023-03-30T17:18:44.573Z,23.50
2023-03-30T17:21:16.704Z,25.90
2023-03-30T17:23:47.712Z,22.13
2023-03-30T17:26:16.482Z,26.63
2023-03-30T17:28:45.405Z,65.53
2023-03-30T17:31:17.133Z,35.90
2023-03-30T17:33:47.918Z,26.17
2023-03-30T17:36:19.600Z,27.20
2023-03-30T17:38:48.402Z,21.48
2023-03-30T17:41:19.368Z,28.52
2023-03-30T17:43:48.673Z,27.48
2023-03-30T17:46:18.730Z,28.90
2023-03-30T17:48:48.916Z,22.38
2023-03-30T17:51:17.235Z,33.47
2023-03-30T17:53:45.679Z,28.55
2023-03-30T17:56:14.941Z,25.25
2023-03-30T17:58:43.705Z,30.35
2023-03-30T18:01:13.874Z,32.38
2023-03-30T18:03:42.724Z,32.78
2023-03-30T18:06:13.996Z,30.42
2023-03-30T18:08:43.059Z,34.65
2023-03-30T18:11:11.472Z,28.80
2023-03-30T18:13:39.846Z,33.38
2023-03-30T18:16:08.421Z,36.53
2023-03-30T18:18:37.417Z,30.55
2023-03-30T18:21:06.999Z,34.35
2023-03-30T18:23:37.345Z,42.70
2023-03-30T18:26:10.551Z,35.47
2023-03-30T18:28:44.312Z,37.67
2023-03-30T18:31:13.250Z,32.80
2023-03-30T18:33:41.862Z,28.55
2023-03-30T18:36:12.919Z,36.83
2023-03-30T18:38:43.445Z,39.30
2023-03-30T18:41:13.293Z,34.85
2023-03-30T18:43:41.801Z,28.55
2023-03-30T18:46:13.407Z,37.97
2023-03-30T18:48:41.943Z,31.80
2023-03-30T18:51:12.275Z,35.17
2023-03-30T18:53:42.014Z,39.60
2023-03-30T18:56:13.677Z,34.90
2023-03-30T18:58:43.005Z,34.15
2023-03-30T19:01:13.488Z,38.90
2023-03-30T19:03:42.824Z,35.40
2023-03-30T19:06:14.115Z,35.87
2023-03-30T19:08:44.383Z,34.33
2023-03-30T19:11:16.529Z,35.47
2023-03-30T19:13:47.292Z,35.85
2023-03-30T19:16:18.515Z,35.58
2023-03-30T19:18:48.287Z,37.40
2023-03-30T19:21:18.067Z,34.27
2023-03-30T19:23:47.766Z,33.87
2023-03-30T19:26:16.265Z,36.13
2023-03-30T19:28:44.748Z,37.43
2023-03-30T19:31:16.304Z,35.30
2023-03-30T19:33:45.074Z,33.83
2023-03-30T19:36:13.673Z,29.37
2023-03-30T19:38:43.985Z,33.63
2023-03-30T19:41:13.826Z,36.00
2023-03-30T19:43:42.322Z,34.77
2023-03-30T19:46:10.859Z,30.90
2023-03-30T19:48:39.476Z,25.23
2023-03-30T19:51:08.137Z,32.67
2023-03-30T19:53:37.456Z,44.40
2023-03-30T19:56:10.324Z,33.33
2023-03-30T19:58:40.640Z,32.73
2023-03-30T20:01:10.442Z,35.80
2023-03-30T20:03:39.031Z,33.83
2023-03-30T20:06:10.307Z,39.63
2023-03-30T20:08:38.778Z,35.20
2023-03-30T20:11:08.605Z,35.37
2023-03-30T20:13:37.333Z,34.13
2023-03-30T20:16:07.269Z,30.30
2023-03-30T20:18:35.896Z,29.63
2023-03-30T20:21:04.903Z,28.87
2023-03-30T20:23:33.734Z,31.47
2023-03-30T20:26:04.494Z,31.13
2023-03-30T20:28:33.150Z,33.17
2023-03-30T20:31:01.944Z,36.63
2023-03-30T20:33:33.951Z,32.70
2023-03-30T20:36:02.343Z,34.60
2023-03-30T20:38:31.101Z,30.87
2023-03-30T20:41:02.050Z,29.90
2023-03-30T20:43:38.390Z,28.70
2023-03-30T20:46:13.984Z,33.13
2023-03-30T20:48:45.116Z,28.50
2023-03-30T20:51:15.162Z,36.93
2023-03-30T20:53:43.570Z,27.03
2023-03-30T20:56:12.264Z,31.40
2023-03-30T20:58:41.245Z,29.60
2023-03-30T21:01:15.632Z,29.67
2023-03-30T21:03:45.839Z,31.73
2023-03-30T21:06:18.182Z,29.83
2023-03-30T21:08:48.316Z,29.33
2023-03-30T21:11:16.894Z,37.43
2023-03-30T21:13:45.212Z,26.87
2023-03-30T21:16:13.875Z,27.60
2023-03-30T21:18:42.485Z,26.23
2023-03-30T21:21:12.097Z,32.40
2023-03-30T21:23:41.502Z,27.73
2023-03-30T21:26:10.282Z,30.10
2023-03-30T21:28:41.405Z,25.60
2023-03-30T21:31:16.375Z,19.47
2023-03-30T21:33:45.714Z,22.57
2023-03-30T21:36:15.457Z,16.83
2023-03-30T21:38:44.239Z,23.70
2023-03-30T21:41:14.814Z,21.80
2023-03-30T21:43:45.142Z,21.17
2023-03-30T21:46:14.902Z,22.17
2023-03-30T21:48:45.689Z,22.13
2023-03-30T21:51:17.157Z,19.17
2023-03-30T21:53:48.196Z,23.53
2023-03-30T21:56:16.826Z,14.23
2023-03-30T21:58:45.810Z,17.30
2023-03-30T22:01:14.336Z,18.33
2023-03-30T22:03:45.764Z,14.63
2023-03-30T22:06:17.292Z,16.07
2023-03-30T22:08:46.523Z,14.17
2023-03-30T22:11:17.535Z,13.87
2023-03-30T22:13:48.389Z,13.17
2023-03-30T22:16:18.692Z,13.37
2023-03-30T22:18:47.964Z,14.23
2023-03-30T22:21:19.504Z,14.23
2023-03-30T22:23:48.054Z,17.07
2023-03-30T22:26:17.096Z,9.07
2023-03-30T22:28:45.895Z,10.53
2023-03-30T22:31:16.845Z,13.67
2023-03-30T22:33:45.747Z,17.07
2023-03-30T22:36:20.759Z,9.27
2023-03-30T22:38:50.851Z,13.55
2023-03-30T22:41:23.861Z,14.73
2023-03-30T22:43:52.997Z,14.50
2023-03-30T22:46:21.633Z,10.80
2023-03-30T22:48:51.780Z,16.77
2023-03-30T22:51:26.414Z,14.57
2023-03-30T22:53:57.791Z,13.38
2023-03-30T22:56:27.345Z,10.43
2023-03-30T22:58:56.084Z,19.80
2023-03-30T23:01:24.864Z,13.50
2023-03-30T23:03:54.567Z,17.40
2023-03-30T23:06:24.571Z,14.85
2023-03-30T23:08:54.576Z,11.95
2023-03-30T23:11:23.201Z,15.03
2023-03-30T23:13:52.435Z,14.85
2023-03-30T23:16:20.772Z,17.08
2023-03-30T23:18:49.786Z,15.90
2023-03-30T23:21:18.423Z,13.75
2023-03-30T23:23:48.001Z,12.52
2023-03-30T23:26:16.447Z,16.23
2023-03-30T23:28:45.370Z,15.10
2023-03-30T23:31:15.466Z,14.20
2023-03-30T23:33:44.682Z,20.73
2023-03-30T23:36:14.393Z,15.07
2023-03-30T23:38:43.554Z,16.77
2023-03-30T23:41:15.128Z,19.75
2023-03-30T23:43:43.810Z,18.45
2023-03-30T23:46:12.591Z,12.43
2023-03-30T23:48:41.444Z,11.52
2023-03-30T23:51:10.248Z,12.85
2023-03-30T23:53:40.308Z,16.10
2023-03-30T23:56:12.976Z,14.45
2023-03-30T23:58:43.443Z,21.00
